Time;durP1;ratioP1;P1;durP2;ratioP2;P2;SDS_P1;SDS_P2;PMS_P1;PMS_P2;Temp;Humidity;BMP_temperature;BMP_pressure;BME280_temperature;BME280_humidity;BME280_pressure;Samples;Min_cycle;Max_cycle;Signal;HPM_P1;HPM_P2
2022/01/15 00:00:02;;;;;;;1.30;1.15;;;;;;;0.80;69.95;98917.95;1758418;80;21738;-76
2022/01/15 00:02:29;;;;;;;1.37;0.93;;;;;;;0.78;69.97;98906.42;1758093;80;20947;-76
2022/01/15 00:04:56;;;;;;;1.12;0.50;;;;;;;0.81;69.97;98928.66;1758559;80;20849;-74
2022/01/15 00:07:23;;;;;;;1.25;0.70;;;;;;;0.81;70.00;98937.69;1758011;81;20924;-75
2022/01/15 00:09:51;;;;;;;1.30;0.55;;;;;;;0.79;70.00;98937.76;1758421;81;21137;-76
2022/01/15 00:12:18;;;;;;;1.32;0.70;;;;;;;0.80;70.03;98936.87;1758211;80;21554;-75
2022/01/15 00:14:45;;;;;;;2.67;0.60;;;;;;;0.80;69.84;98940.73;1758322;81;20826;-74
2022/01/15 00:17:32;;;;;;;1.00;0.80;;;;;;;0.83;69.63;98938.45;1749107;81;20964;-74
2022/01/15 00:19:50;;;;;;;;;;;;;;;0.82;69.54;98945.38;1746772;81;20948;-74
2022/01/15 00:22:18;;;;;;;1.75;0.70;;;;;;;0.81;69.20;98957.87;1745231;81;20101;-75
2022/01/15 00:24:46;;;;;;;1.60;0.95;;;;;;;0.81;68.83;98950.13;1745172;82;21169;-74
2022/01/15 00:27:13;;;;;;;2.62;0.90;;;;;;;0.83;68.80;98950.07;1745786;81;20976;-76
2022/01/15 00:29:40;;;;;;;2.15;1.20;;;;;;;0.84;68.63;98950.44;1744754;81;21457;-74
2022/01/15 00:32:07;;;;;;;1.25;1.12;;;;;;;0.86;68.45;98949.09;1744620;81;20913;-75
2022/01/15 00:34:36;;;;;;;0.98;0.70;;;;;;;0.85;68.31;98959.04;1744672;81;20850;-76
2022/01/15 00:37:03;;;;;;;1.85;0.80;;;;;;;0.85;68.08;98953.42;1744524;81;21144;-75
2022/01/15 00:39:31;;;;;;;2.33;0.75;;;;;;;0.86;67.93;98967.15;1744490;81;20857;-76
2022/01/15 00:41:57;;;;;;;1.67;0.47;;;;;;;0.85;67.70;98956.00;1744759;82;20928;-76
2022/01/15 00:44:24;;;;;;;2.58;1.17;;;;;;;0.88;67.33;98957.59;1744533;81;21362;-76
2022/01/15 00:46:51;;;;;;;0.70;0.40;;;;;;;0.90;67.12;98960.94;1744930;81;21418;-76
2022/01/15 00:49:18;;;;;;;0.45;0.40;;;;;;;0.91;67.15;98957.01;1744543;81;21143;-75
2022/01/15 00:51:45;;;;;;;1.00;0.82;;;;;;;0.92;66.98;98968.98;1744675;81;20838;-76
2022/01/15 00:54:12;;;;;;;1.47;0.23;;;;;;;0.93;66.70;98974.52;1744568;80;21098;-75
2022/01/15 00:56:40;;;;;;;3.47;0.53;;;;;;;0.95;66.14;98973.99;1744564;81;20968;-75
2022/01/15 00:59:07;;;;;;;0.35;0.35;;;;;;;1.00;65.93;98972.48;1744736;81;20888;-75
2022/01/15 01:01:34;;;;;;;1.42;0.57;;;;;;;1.04;66.04;98976.59;1744675;81;21786;-75
2022/01/15 01:04:01;;;;;;;7.90;1.17;;;;;;;1.05;65.88;98984.73;1744603;81;20941;-75
2022/01/15 01:06:28;;;;;;;3.75;0.90;;;;;;;1.08;65.83;98992.33;1744909;82;20928;-75
2022/01/15 01:08:54;;;;;;;1.72;0.40;;;;;;;1.10;65.91;98984.05;1744551;81;20925;-75
2022/01/15 01:11:32;;;;;;;1.22;0.60;;;;;;;1.13;65.76;98990.81;1744658;81;20929;-76
2022/01/15 01:24:36;;;;;;;1.77;0.60;;;;;;;1.14;65.32;99004.12;1757919;81;21433;-75
2022/01/15 01:27:13;;;;;;;0.68;0.60;;;;;;;1.15;65.35;99016.10;1758361;81;21461;-75
2022/01/15 01:34:34;;;;;;;1.17;0.70;;;;;;;1.13;65.38;99011.46;1757807;81;20896;-75
2022/01/15 01:37:10;;;;;;;1.27;0.50;;;;;;;1.12;65.33;99008.52;1757627;81;21210;-75
2022/01/15 01:39:47;;;;;;;3.33;1.10;;;;;;;1.10;65.38;99027.94;1756617;81;20994;-74
2022/01/15 01:45:05;;;;;;;1.37;0.80;;;;;;;1.04;65.31;99016.60;1758294;81;20845;-75
2022/01/15 01:47:41;;;;;;;0.93;0.47;;;;;;;0.99;65.34;99023.27;1758556;80;20889;-75
2022/01/15 01:50:13;;;;;;;3.27;0.70;;;;;;;0.94;65.48;99036.02;1759170;81;21362;-76
2022/01/15 01:52:41;;;;;;;1.47;0.50;;;;;;;0.91;65.49;99036.14;1758012;81;21163;-74
2022/01/15 01:55:09;;;;;;;7.00;1.07;;;;;;;0.88;65.54;99040.17;1757887;81;20928;-74
2022/01/15 01:57:36;;;;;;;1.75;0.50;;;;;;;0.83;65.61;99038.63;1758090;81;20868;-74
2022/01/15 02:00:07;;;;;;;1.30;0.50;;;;;;;0.80;65.65;99046.52;1757949;80;20971;-74
2022/01/15 02:02:35;;;;;;;1.35;0.37;;;;;;;0.79;65.63;99046.13;1757107;80;20904;-75
2022/01/15 02:05:03;;;;;;;0.85;0.50;;;;;;;0.74;65.65;99050.66;1757872;81;21077;-75
2022/01/15 02:07:30;;;;;;;3.10;0.53;;;;;;;0.75;65.79;99052.78;1757509;81;20943;-74
2022/01/15 02:09:58;;;;;;;3.15;0.50;;;;;;;0.76;65.70;99046.73;1757856;81;20912;-74
2022/01/15 02:12:25;;;;;;;1.90;0.47;;;;;;;0.75;65.77;99045.05;1757924;81;20860;-74
2022/01/15 02:14:52;;;;;;;1.67;0.72;;;;;;;0.75;65.63;99048.45;1757951;81;20904;-74
2022/01/15 02:17:21;;;;;;;0.30;0.30;;;;;;;0.78;65.77;99050.08;1757764;81;21136;-76
2022/01/15 02:20:10;;;;;;;1.55;0.30;;;;;;;0.81;65.76;99052.52;1757590;81;20952;-75
2022/01/15 02:25:12;;;;;;;0.70;0.50;;;;;;;0.86;65.76;99057.46;1757929;81;20948;-75
2022/01/15 02:27:39;;;;;;;1.10;0.35;;;;;;;0.86;65.71;99068.61;1757957;81;20923;-78
2022/01/15 02:30:07;;;;;;;1.45;0.47;;;;;;;0.91;65.50;99070.98;1757728;81;21129;-76
2022/01/15 02:32:34;;;;;;;3.87;0.80;;;;;;;0.93;65.55;99069.17;1757681;81;21540;-77
2022/01/15 02:35:02;;;;;;;1.30;0.25;;;;;;;0.96;65.36;99079.37;1757913;81;20939;-75
2022/01/15 02:37:30;;;;;;;4.20;0.47;;;;;;;0.97;65.20;99083.16;1757721;81;21452;-76
2022/01/15 02:39:57;;;;;;;0.85;0.40;;;;;;;0.98;65.39;99085.31;1758071;81;21647;-75
2022/01/15 02:42:28;;;;;;;0.82;0.35;;;;;;;0.99;65.29;99101.99;1757809;81;21126;-75
2022/01/15 02:44:59;;;;;;;2.58;0.30;;;;;;;1.02;65.27;99104.45;1757905;81;21433;-75
2022/01/15 02:50:08;;;;;;;3.55;0.30;;;;;;;1.02;65.39;99104.45;1758079;81;20920;-75
2022/01/15 02:52:35;;;;;;;0.95;0.70;;;;;;;1.02;65.34;99102.30;1757799;80;20932;-75
2022/01/15 02:55:03;;;;;;;0.62;0.30;;;;;;;1.04;65.35;99103.07;1757799;81;21126;-76
2022/01/15 02:57:30;;;;;;;2.30;0.93;;;;;;;1.05;65.36;99102.18;1757748;81;20956;-76
2022/01/15 02:59:56;;;;;;;0.95;0.55;;;;;;;1.06;65.35;99105.13;1757962;81;20911;-75
2022/01/15 03:02:23;;;;;;;0.80;0.57;;;;;;;1.07;65.33;99108.55;1757805;81;20896;-76
2022/01/15 03:04:50;;;;;;;2.10;0.85;;;;;;;1.07;65.22;99105.53;1758044;81;20892;-76
2022/01/15 03:07:16;;;;;;;3.50;0.50;;;;;;;1.08;65.37;99114.94;1757824;81;21087;-74
2022/01/15 03:09:43;;;;;;;5.53;2.20;;;;;;;1.12;65.22;99119.52;1759382;81;20877;-74
2022/01/15 03:12:11;;;;;;;3.20;1.10;;;;;;;1.15;65.33;99133.11;1758324;81;20924;-75
2022/01/15 03:14:38;;;;;;;0.90;0.55;;;;;;;1.18;65.47;99141.20;1757752;81;21439;-76
2022/01/15 03:17:05;;;;;;;2.77;0.82;;;;;;;1.19;65.71;99142.39;1757746;80;20928;-75
2022/01/15 03:19:32;;;;;;;1.75;0.37;;;;;;;1.19;65.91;99146.27;1757782;81;21775;-76
2022/01/15 03:21:58;;;;;;;1.12;0.72;;;;;;;1.18;66.23;99157.52;1757735;80;20865;-75
2022/01/15 03:24:25;;;;;;;0.93;0.30;;;;;;;1.15;66.60;99149.89;1757875;81;20939;-75
2022/01/15 03:26:52;;;;;;;2.20;0.50;;;;;;;1.15;66.74;99164.55;1757689;80;20944;-75
2022/01/15 03:29:19;;;;;;;1.02;0.60;;;;;;;1.13;67.16;99167.65;1758077;81;20872;-75
2022/01/15 03:31:46;;;;;;;0.57;0.45;;;;;;;1.12;67.25;99174.56;1757846;81;21118;-76
2022/01/15 03:34:12;;;;;;;1.17;0.40;;;;;;;1.11;67.46;99176.78;1757999;81;21073;-74
2022/01/15 03:36:39;;;;;;;1.90;0.78;;;;;;;1.11;67.70;99181.94;1757648;81;20936;-74
2022/01/15 03:39:07;;;;;;;1.67;0.70;;;;;;;1.09;67.91;99173.85;1757696;80;20920;-75
2022/01/15 03:41:34;;;;;;;1.10;0.60;;;;;;;1.08;68.15;99178.64;1757984;81;20979;-75
2022/01/15 03:44:00;;;;;;;4.05;0.50;;;;;;;1.06;68.21;99180.45;1758062;81;21779;-76
2022/01/15 03:46:27;;;;;;;1.62;0.75;;;;;;;1.03;68.26;99179.68;1757712;80;20979;-75
2022/01/15 03:48:54;;;;;;;1.55;0.72;;;;;;;1.05;68.45;99192.98;1758067;81;20947;-74
2022/01/15 03:51:21;;;;;;;4.90;0.50;;;;;;;1.05;68.46;99192.53;1757922;81;20897;-75
2022/01/15 03:53:50;;;;;;;2.52;0.35;;;;;;;1.02;68.44;99197.38;1757722;81;20845;-75
2022/01/15 03:56:17;;;;;;;1.57;0.50;;;;;;;1.02;68.36;99203.83;1757663;81;22054;-75
2022/01/15 03:58:44;;;;;;;3.12;0.40;;;;;;;1.05;68.37;99203.31;1757891;81;20932;-75
2022/01/15 04:01:10;;;;;;;1.67;0.57;;;;;;;1.03;68.35;99210.66;1757751;80;20939;-75
2022/01/15 04:03:38;;;;;;;1.62;0.60;;;;;;;1.03;68.30;99219.69;1757776;80;20983;-75
2022/01/15 04:06:05;;;;;;;1.57;0.53;;;;;;;1.03;68.26;99222.73;1758164;81;20923;-75
2022/01/15 04:08:33;;;;;;;1.52;0.55;;;;;;;1.03;68.17;99220.98;1757864;81;21318;-74
2022/01/15 04:11:01;;;;;;;1.92;1.05;;;;;;;1.05;68.06;99226.55;1757907;80;21350;-74
2022/01/15 04:13:27;;;;;;;2.33;0.88;;;;;;;1.03;68.18;99211.95;1758042;81;20916;-75
2022/01/15 04:15:55;;;;;;;0.70;0.30;;;;;;;1.03;68.17;99226.60;1757894;80;20904;-75
2022/01/15 04:18:23;;;;;;;1.12;0.50;;;;;;;1.01;68.22;99227.12;1757855;80;20852;-75
2022/01/15 04:20:51;;;;;;;2.25;0.57;;;;;;;1.01;68.28;99244.73;1757984;81;21178;-75
2022/01/15 04:23:18;;;;;;;0.75;0.37;;;;;;;1.02;68.33;99241.69;1757830;81;20936;-75
2022/01/15 04:25:45;;;;;;;1.80;0.50;;;;;;;1.02;68.35;99241.69;1757910;81;21358;-74
2022/01/15 04:28:12;;;;;;;2.22;0.45;;;;;;;1.02;68.44;99242.55;1758017;81;20968;-75
2022/01/15 04:30:46;;;;;;;3.62;0.53;;;;;;;1.05;68.54;99248.48;1757998;80;20972;-74
2022/01/15 04:33:10;;;;;;;2.22;0.60;;;;;;;1.04;68.72;99252.78;1765909;80;21158;-74
2022/01/15 04:35:37;;;;;;;1.92;0.50;;;;;;;1.00;68.98;99249.95;1789604;80;20860;-75
2022/01/15 04:38:08;;;;;;;1.35;0.72;;;;;;;0.95;69.36;99252.72;1789917;78;20950;-74
2022/01/15 04:40:33;;;;;;;3.87;1.10;;;;;;;0.89;69.56;99244.41;1789316;79;20956;-76
2022/01/15 04:43:00;;;;;;;3.05;0.80;;;;;;;0.86;69.90;99253.58;1789690;80;20959;-74
2022/01/15 04:45:27;;;;;;;2.37;0.82;;;;;;;0.83;70.16;99258.42;1789618;80;22168;-74
2022/01/15 04:47:54;;;;;;;1.60;0.47;;;;;;;0.79;70.34;99259.45;1789946;80;20924;-75
2022/01/15 04:50:21;;;;;;;1.60;0.57;;;;;;;0.76;70.31;99266.04;1789775;80;21473;-74
2022/01/15 04:52:48;;;;;;;0.88;0.57;;;;;;;0.74;70.43;99282.03;1789902;80;20919;-75
2022/01/15 04:55:14;;;;;;;2.87;0.30;;;;;;;0.71;70.48;99275.27;1789692;80;21413;-73
2022/01/15 04:57:41;;;;;;;2.10;0.80;;;;;;;0.70;70.53;99283.05;1789647;80;21138;-74
2022/01/15 05:00:12;;;;;;;1.05;0.30;;;;;;;0.69;70.60;99288.67;1789502;80;20971;-75
2022/01/15 05:02:39;;;;;;;0.88;0.60;;;;;;;0.65;70.60;99292.73;1790141;79;21536;-73
2022/01/15 05:05:08;;;;;;;0.82;0.35;;;;;;;0.61;70.69;99293.30;1789645;80;20875;-76
2022/01/15 05:07:34;;;;;;;2.20;0.47;;;;;;;0.59;70.56;99301.09;1789583;80;20907;-75
2022/01/15 05:10:01;;;;;;;0.25;0.25;;;;;;;0.58;70.46;99305.04;1789633;80;21091;-75
2022/01/15 05:12:31;;;;;;;1.65;0.78;;;;;;;0.58;70.44;99308.91;1789823;79;20861;-75
2022/01/15 05:14:56;;;;;;;6.70;0.70;;;;;;;0.58;70.74;99317.48;1789425;80;20927;-74
2022/01/15 05:17:23;;;;;;;1.10;0.82;;;;;;;0.58;71.29;99324.39;1789663;80;21556;-75
2022/01/15 05:19:50;;;;;;;4.90;0.68;;;;;;;0.55;72.08;99322.74;1780847;80;20915;-77
2022/01/15 05:22:18;;;;;;;1.00;0.68;;;;;;;0.47;73.19;99306.75;1780822;80;21418;-74
2022/01/15 05:24:45;;;;;;;5.75;0.57;;;;;;;0.40;73.87;99322.92;1780993;79;20891;-74
2022/01/15 05:27:12;;;;;;;0.68;0.37;;;;;;;0.33;74.20;99331.77;1780652;79;20935;-74
2022/01/15 05:29:39;;;;;;;0.78;0.70;;;;;;;0.26;74.47;99323.05;1780630;80;21468;-75
2022/01/15 05:32:07;;;;;;;1.12;0.40;;;;;;;0.17;75.10;99335.39;1780647;79;20915;-75
2022/01/15 05:34:34;;;;;;;0.98;0.60;;;;;;;0.11;75.27;99336.94;1780971;80;21173;-74
2022/01/15 05:37:01;;;;;;;3.47;2.60;;;;;;;0.07;75.46;99340.95;1780688;80;21429;-76
2022/01/15 05:39:28;;;;;;;1.98;1.10;;;;;;;0.03;75.69;99339.41;1780887;79;20903;-75
2022/01/15 05:41:56;;;;;;;1.82;0.80;;;;;;;-0.04;75.85;99344.78;1780727;79;20860;-75
2022/01/15 05:44:23;;;;;;;1.50;0.90;;;;;;;-0.08;76.12;99344.50;1780628;80;21473;-75
2022/01/15 05:46:49;;;;;;;3.27;2.02;;;;;;;-0.10;76.35;99360.47;1780887;80;21065;-76
2022/01/15 05:49:16;;;;;;;1.82;1.20;;;;;;;-0.10;76.54;99361.75;1781172;79;21379;-76
2022/01/15 05:51:43;;;;;;;1.05;0.80;;;;;;;-0.08;76.67;99364.28;1780775;80;21002;-76
2022/01/15 05:54:11;;;;;;;2.17;1.07;;;;;;;-0.06;76.55;99364.61;1783155;79;20836;-76
2022/01/15 05:56:38;;;;;;;3.92;1.60;;;;;;;-0.04;76.45;99371.84;1781437;80;20887;-74
2022/01/15 05:59:06;;;;;;;2.70;1.55;;;;;;;0.04;76.34;99371.55;1780735;80;21630;-75
2022/01/15 06:01:36;;;;;;;1.62;0.78;;;;;;;0.11;76.01;99370.88;1780768;80;20954;-76
2022/01/15 06:04:04;;;;;;;2.50;0.88;;;;;;;0.17;75.83;99375.34;1780747;79;20856;-75
2022/01/15 06:06:30;;;;;;;2.30;0.68;;;;;;;0.23;75.31;99379.45;1780673;79;20915;-76
2022/01/15 06:08:57;;;;;;;1.00;0.40;;;;;;;0.26;75.02;99384.94;1781093;79;21326;-76
2022/01/15 06:11:27;;;;;;;1.00;0.80;;;;;;;0.30;74.38;99392.49;1780629;80;20967;-76
2022/01/15 06:13:53;;;;;;;2.02;0.50;;;;;;;0.33;74.00;99399.27;1780590;80;20959;-76
2022/01/15 06:16:20;;;;;;;0.93;0.40;;;;;;;0.36;73.69;99412.89;1780842;79;20959;-76
2022/01/15 06:18:47;;;;;;;2.67;0.50;;;;;;;0.40;73.32;99411.89;1780483;80;20991;-76
2022/01/15 06:21:14;;;;;;;1.27;0.60;;;;;;;0.44;73.16;99423.36;1780819;80;20947;-77
2022/01/15 06:23:41;;;;;;;2.50;0.68;;;;;;;0.50;72.81;99417.52;1780946;80;21702;-76
2022/01/15 06:26:08;;;;;;;2.67;0.62;;;;;;;0.55;72.25;99419.92;1780527;79;20880;-75
2022/01/15 06:28:35;;;;;;;3.47;1.02;;;;;;;0.59;72.07;99430.52;1780691;80;21433;-76
2022/01/15 06:31:01;;;;;;;1.80;0.62;;;;;;;0.63;72.00;99426.09;1780610;80;20920;-76
2022/01/15 06:33:30;;;;;;;0.90;0.65;;;;;;;0.68;71.51;99426.75;1780731;80;20911;-76
2022/01/15 06:35:56;;;;;;;0.98;0.30;;;;;;;0.71;71.18;99440.38;1780361;80;21101;-75
2022/01/15 06:38:23;;;;;;;1.90;0.62;;;;;;;0.74;70.65;99432.97;1780826;80;20962;-76
2022/01/15 06:40:50;;;;;;;1.90;1.57;;;;;;;0.75;70.53;99438.50;1780654;80;21006;-78
2022/01/15 06:43:17;;;;;;;4.37;0.72;;;;;;;0.79;70.66;99440.07;1780659;80;20923;-75
2022/01/15 06:45:44;;;;;;;3.05;0.60;;;;;;;0.83;70.47;99443.77;1780549;80;21472;-75
2022/01/15 06:48:11;;;;;;;3.22;1.15;;;;;;;0.89;70.32;99458.18;1780819;79;21505;-74
2022/01/15 06:50:38;;;;;;;1.65;0.68;;;;;;;0.95;69.93;99464.38;1780615;80;20911;-75
2022/01/15 06:53:05;;;;;;;1.07;0.68;;;;;;;0.99;69.65;99462.06;1780868;80;20983;-75
2022/01/15 06:55:32;;;;;;;0.68;0.40;;;;;;;1.03;69.51;99467.95;1780625;80;20963;-75
2022/01/15 06:57:59;;;;;;;2.27;0.57;;;;;;;1.05;69.18;99475.65;1780697;80;20884;-74
2022/01/15 07:00:25;;;;;;;0.93;0.57;;;;;;;1.07;69.26;99481.14;1780645;80;22157;-74
2022/01/15 07:02:53;;;;;;;3.98;1.70;;;;;;;1.08;68.78;99481.52;1780420;79;21421;-75
2022/01/15 07:05:20;;;;;;;1.02;0.50;;;;;;;1.08;68.83;99484.09;1780764;79;21053;-75
2022/01/15 07:07:48;;;;;;;1.40;0.82;;;;;;;1.09;68.53;99493.54;1780819;80;21021;-75
2022/01/15 07:10:15;;;;;;;1.17;0.62;;;;;;;1.11;68.27;99492.16;1780566;80;20959;-74
2022/01/15 07:12:42;;;;;;;1.98;0.88;;;;;;;1.13;67.61;99501.98;1781131;80;21476;-74
2022/01/15 07:15:11;;;;;;;1.57;0.57;;;;;;;1.13;67.89;99491.20;1781011;80;20903;-75
2022/01/15 07:17:43;;;;;;;1.45;0.30;;;;;;;1.12;67.70;99495.98;1780846;80;20900;-76
2022/01/15 07:20:11;;;;;;;0.42;0.37;;;;;;;1.16;67.61;99500.59;1750357;80;20876;-74
2022/01/15 07:22:39;;;;;;;4.37;0.98;;;;;;;1.20;67.53;99505.58;1780841;80;20880;-75
2022/01/15 07:25:08;;;;;;;1.15;0.68;;;;;;;1.22;67.54;99507.64;1780879;80;22136;-75
2022/01/15 07:27:36;;;;;;;2.30;0.70;;;;;;;1.24;67.04;99508.86;1780454;80;21008;-75
2022/01/15 07:30:05;;;;;;;7.17;0.53;;;;;;;1.26;66.88;99516.55;1780888;79;20883;-82
2022/01/15 07:32:32;;;;;;;1.37;0.37;;;;;;;1.27;67.01;99520.37;1780957;80;21002;-81
2022/01/15 07:34:59;;;;;;;1.62;0.70;;;;;;;1.31;66.70;99527.11;1780623;80;20848;-80
2022/01/15 07:37:26;;;;;;;3.02;0.42;;;;;;;1.31;66.45;99523.23;1780926;80;21491;-81
2022/01/15 07:39:53;;;;;;;0.88;0.55;;;;;;;1.31;66.10;99526.23;1780644;80;21392;-81
2022/01/15 07:42:20;;;;;;;2.25;0.42;;;;;;;1.32;66.25;99529.23;1781091;80;20860;-81
2022/01/15 07:44:47;;;;;;;2.15;0.60;;;;;;;1.36;66.12;99541.13;1781229;79;21274;-80
2022/01/15 07:47:14;;;;;;;2.45;0.70;;;;;;;1.43;66.08;99538.68;1781162;80;20974;-81
2022/01/15 07:49:40;;;;;;;1.98;0.80;;;;;;;1.51;65.91;99531.90;1780816;80;21493;-82
2022/01/15 07:52:12;;;;;;;0.70;0.37;;;;;;;1.56;65.87;99539.87;1780811;80;20876;-82
2022/01/15 07:54:39;;;;;;;2.00;0.42;;;;;;;1.62;65.33;99537.05;1781209;79;21021;-84
2022/01/15 07:57:06;;;;;;;2.40;0.70;;;;;;;1.66;65.14;99538.58;1780751;80;20951;-81
2022/01/15 07:59:33;;;;;;;1.82;0.42;;;;;;;1.72;64.89;99537.95;1781244;79;20967;-82
2022/01/15 08:02:00;;;;;;;2.15;0.30;;;;;;;1.74;64.66;99545.20;1780918;80;21079;-84
2022/01/15 08:04:26;;;;;;;1.22;0.40;;;;;;;1.79;64.91;99557.47;1780974;80;21514;-81
2022/01/15 08:06:53;;;;;;;0.98;0.57;;;;;;;1.82;64.53;99562.08;1780922;80;20932;-81
2022/01/15 08:09:22;;;;;;;1.20;0.40;;;;;;;1.85;64.43;99557.23;1780842;80;20967;-83
2022/01/15 08:11:49;;;;;;;1.00;0.30;;;;;;;1.88;64.10;99558.84;1781161;79;20872;-81
2022/01/15 08:14:16;;;;;;;2.50;1.32;;;;;;;1.90;64.36;99563.03;1780998;80;21516;-82
2022/01/15 08:16:45;;;;;;;2.22;0.50;;;;;;;1.93;64.48;99566.78;1779387;80;21409;-82
2022/01/15 08:19:11;;;;;;;0.98;0.50;;;;;;;1.99;64.52;99566.53;1782478;80;20923;-85
2022/01/15 08:21:39;;;;;;;0.62;0.50;;;;;;;2.05;64.36;99564.16;1786563;79;20860;-83
2022/01/15 08:24:06;;;;;;;1.85;0.50;;;;;;;2.12;64.27;99568.61;1786744;80;20910;-84
2022/01/15 08:26:33;;;;;;;1.55;0.45;;;;;;;2.14;63.89;99568.09;1786550;79;21513;-83
2022/01/15 08:29:00;;;;;;;2.85;1.07;;;;;;;2.11;63.56;99571.63;1786542;79;20875;-82
2022/01/15 08:31:26;;;;;;;1.77;1.02;;;;;;;2.10;63.85;99569.96;1786590;80;20844;-79
2022/01/15 08:33:53;;;;;;;1.45;0.75;;;;;;;2.12;63.82;99581.08;1786410;79;21461;-79
2022/01/15 08:36:21;;;;;;;1.85;0.50;;;;;;;2.15;63.80;99580.94;1786536;79;20967;-78
2022/01/15 08:38:48;;;;;;;1.47;0.45;;;;;;;2.17;63.46;99589.48;1786634;80;21163;-78
2022/01/15 08:41:15;;;;;;;1.05;0.62;;;;;;;2.19;63.46;99587.67;1786558;79;20915;-75
2022/01/15 08:43:42;;;;;;;2.25;0.40;;;;;;;2.23;63.52;99585.81;1786722;80;20919;-77
2022/01/15 08:46:11;;;;;;;0.70;0.40;;;;;;;2.24;63.52;99584.89;1786752;80;20855;-79
2022/01/15 08:48:39;;;;;;;1.12;0.70;;;;;;;2.26;63.34;99584.38;1786530;79;20829;-78
2022/01/15 08:51:06;;;;;;;0.60;0.55;;;;;;;2.24;63.28;99579.72;1786920;79;21566;-76
2022/01/15 08:53:33;;;;;;;1.10;0.42;;;;;;;2.22;63.40;99578.94;1786583;80;20946;-77
2022/01/15 08:56:00;;;;;;;2.50;0.70;;;;;;;2.22;63.31;99586.27;1786874;80;20911;-77
2022/01/15 08:58:28;;;;;;;1.70;0.65;;;;;;;2.23;63.34;99593.11;1786990;80;20907;-77
2022/01/15 09:00:55;;;;;;;2.30;0.60;;;;;;;2.26;63.63;99593.42;1790251;80;20892;-77
2022/01/15 09:03:22;;;;;;;2.20;0.40;;;;;;;2.25;63.27;99586.12;1789855;78;21164;-78
2022/01/15 09:05:50;;;;;;;1.82;0.65;;;;;;;2.24;63.13;99584.89;1789984;80;20864;-78
2022/01/15 09:08:20;;;;;;;1.65;0.65;;;;;;;2.22;62.98;99587.98;1789792;77;20998;-80
2022/01/15 09:10:47;;;;;;;2.12;0.47;;;;;;;2.22;63.01;99600.50;1790115;79;20927;-80
2022/01/15 09:13:13;;;;;;;2.05;0.62;;;;;;;2.20;62.66;99591.09;1790069;77;20937;-80
2022/01/15 09:15:43;;;;;;;4.45;1.02;;;;;;;2.20;62.51;99593.68;1790004;77;21145;-80
2022/01/15 09:18:15;;;;;;;0.60;0.45;;;;;;;2.17;62.55;99581.72;1789643;80;20931;-80
2022/01/15 09:20:43;;;;;;;3.55;0.53;;;;;;;2.18;62.64;99586.44;1788640;78;20954;-81
2022/01/15 09:23:13;;;;;;;2.10;0.90;;;;;;;2.19;62.19;99592.02;1789692;80;20832;-79
2022/01/15 09:25:40;;;;;;;3.27;0.57;;;;;;;2.20;62.30;99582.91;1789228;80;20907;-76
2022/01/15 09:30:55;;;;;;;3.42;0.80;;;;;;;2.23;62.29;99580.64;1786258;80;21433;-81
2022/01/15 09:33:22;;;;;;;2.72;1.10;;;;;;;2.26;62.21;99589.55;1788699;78;20908;-83
2022/01/15 09:35:49;;;;;;;1.62;0.57;;;;;;;2.27;62.16;99600.30;1788673;80;20911;-77
2022/01/15 09:38:16;;;;;;;3.42;0.55;;;;;;;2.28;62.02;99586.45;1788497;80;20868;-79
2022/01/15 09:40:43;;;;;;;1.30;0.80;;;;;;;2.27;62.35;99598.55;1787323;79;21154;-73
2022/01/15 09:43:10;;;;;;;2.17;0.90;;;;;;;2.28;62.32;99600.21;1787275;80;20864;-73
2022/01/15 09:45:39;;;;;;;3.37;0.82;;;;;;;2.32;62.54;99589.30;1786888;80;20836;-76
2022/01/15 09:48:07;;;;;;;2.02;0.90;;;;;;;2.38;62.42;99599.81;1787094;80;20878;-76
2022/01/15 09:50:41;;;;;;;1.77;0.90;;;;;;;2.43;62.24;99601.31;1786604;80;20934;-76
2022/01/15 09:53:07;;;;;;;2.80;0.78;;;;;;;2.45;62.27;99604.68;1787037;80;21130;-77
2022/01/15 09:55:36;;;;;;;1.92;0.50;;;;;;;2.47;61.89;99614.97;1786594;79;20836;-81
2022/01/15 09:58:02;;;;;;;1.72;0.60;;;;;;;2.45;61.71;99605.14;1786943;80;20900;-76
2022/01/15 10:00:30;;;;;;;3.30;0.50;;;;;;;2.45;61.40;99618.08;1786438;80;20931;-75
2022/01/15 10:02:57;;;;;;;3.05;1.07;;;;;;;2.44;61.63;99606.86;1786766;80;20880;-76
2022/01/15 10:05:25;;;;;;;4.42;0.78;;;;;;;2.49;62.02;99607.53;1786515;80;21164;-74
2022/01/15 10:08:04;;;;;;;3.45;0.68;;;;;;;2.58;61.97;99611.47;1786794;80;21414;-76
2022/01/15 10:10:32;;;;;;;1.40;0.80;;;;;;;2.61;61.59;99607.44;1786656;80;20887;-76
2022/01/15 10:13:23;;;;;;;4.67;0.60;;;;;;;2.59;61.28;99609.25;1786698;80;20891;-75
2022/01/15 10:16:03;;;;;;;1.72;0.70;;;;;;;2.60;61.77;99615.26;1786513;80;20982;-77
2022/01/15 10:18:33;;;;;;;1.95;1.10;;;;;;;2.64;62.02;99611.17;1786433;80;21141;-75
2022/01/15 10:21:31;;;;;;;1.62;0.90;;;;;;;2.72;61.90;99610.86;1786372;80;21463;-75
2022/01/15 10:23:56;;;;;;;2.87;0.57;;;;;;;2.80;62.19;99626.91;1784942;79;20971;-75
2022/01/15 10:26:31;;;;;;;4.33;0.90;;;;;;;2.89;61.71;99625.63;1786402;79;21451;-73
2022/01/15 10:29:02;;;;;;;3.37;0.82;;;;;;;2.94;61.66;99616.39;1786490;79;20907;-75
2022/01/15 10:31:43;;;;;;;3.00;1.15;;;;;;;2.96;61.52;99616.70;1786395;80;21100;-75
2022/01/15 10:34:29;;;;;;;1.95;1.07;;;;;;;2.96;61.51;99611.52;1786335;80;20871;-79
2022/01/15 10:37:12;;;;;;;1.32;0.90;;;;;;;2.95;61.59;99617.59;1786148;80;21053;-76
2022/01/15 10:39:49;;;;;;;1.25;0.93;;;;;;;2.93;61.50;99623.30;1786319;79;21400;-75
2022/01/15 10:42:19;;;;;;;4.72;1.25;;;;;;;2.88;61.46;99620.08;1783350;80;20919;-76
2022/01/15 10:44:47;;;;;;;3.42;1.10;;;;;;;2.86;61.51;99618.84;1786510;80;21913;-74
2022/01/15 10:47:17;;;;;;;7.80;1.07;;;;;;;2.83;61.70;99629.34;1786439;79;21353;-76
2022/01/15 10:49:44;;;;;;;4.92;0.90;;;;;;;2.77;62.07;99641.26;1786665;80;20966;-78
2022/01/15 10:52:22;;;;;;;4.97;1.77;;;;;;;2.64;63.20;99649.16;1786322;80;20931;-77
2022/01/15 10:55:13;;;;;;;2.20;1.00;;;;;;;2.50;64.48;99656.23;1786788;80;20875;-76
2022/01/15 10:57:47;;;;;;;2.45;0.70;;;;;;;2.39;65.49;99665.73;1786398;79;21163;-78
2022/01/15 11:00:38;;;;;;;3.92;0.50;;;;;;;2.26;66.80;99652.92;1758427;80;20978;-77
2022/01/15 11:03:12;;;;;;;3.08;0.70;;;;;;;2.15;67.57;99649.48;1786854;80;21429;-75
2022/01/15 11:05:42;;;;;;;2.60;0.50;;;;;;;2.07;68.11;99647.67;1786775;80;20876;-75
2022/01/15 11:08:25;;;;;;;0.95;0.70;;;;;;;2.05;68.55;99651.61;1786446;79;21613;-77
2022/01/15 11:11:04;;;;;;;4.72;1.40;;;;;;;2.07;68.68;99639.92;1786519;79;22028;-76
2022/01/15 11:13:37;;;;;;;4.62;1.15;;;;;;;2.11;68.33;99649.67;1786560;80;21009;-74
2022/01/15 11:16:08;;;;;;;1.27;0.72;;;;;;;2.12;68.26;99647.03;1786580;80;21507;-77
2022/01/15 11:18:40;;;;;;;2.47;0.82;;;;;;;2.19;67.83;99650.20;1786480;79;20908;-76
2022/01/15 11:21:13;;;;;;;4.03;1.57;;;;;;;2.23;67.33;99646.13;1786479;80;20879;-76
2022/01/15 11:23:41;;;;;;;2.80;1.00;;;;;;;2.31;67.32;99647.55;1786332;80;21164;-77
2022/01/15 11:26:16;;;;;;;0.80;0.62;;;;;;;2.40;66.87;99656.22;1786710;79;20904;-76
2022/01/15 11:28:43;;;;;;;4.60;0.60;;;;;;;2.47;66.18;99648.61;1786451;79;21416;-74
2022/01/15 11:34:23;;;;;;;2.72;1.05;;;;;;;2.67;65.15;99639.99;1871179;76;22291;-76
2022/01/15 11:36:50;;;;;;;3.95;1.25;;;;;;;2.72;64.89;99647.09;1827477;78;20979;-75
2022/01/15 11:39:35;;;;;;;1.85;0.80;;;;;;;2.78;64.38;99648.13;1827586;78;21328;-73
2022/01/15 11:42:04;;;;;;;1.37;0.72;;;;;;;2.83;63.63;99653.94;1827274;78;21333;-76
2022/01/15 11:44:38;;;;;;;3.08;1.07;;;;;;;2.88;63.50;99651.98;1827664;78;21334;-79
2022/01/15 11:47:22;;;;;;;3.53;1.63;;;;;;;2.94;62.90;99653.94;1827221;77;21054;-76
2022/01/15 11:49:50;;;;;;;0.62;0.50;;;;;;;2.97;62.11;99664.14;1825137;78;20939;-83
2022/01/15 11:52:26;;;;;;;4.55;0.90;;;;;;;3.01;61.65;99669.12;1825914;78;21113;-73
2022/01/15 11:55:05;;;;;;;1.90;1.07;;;;;;;3.03;61.71;99660.83;1827317;78;20872;-73
2022/01/15 11:57:47;;;;;;;1.80;0.70;;;;;;;3.06;61.17;99667.63;1791136;80;20998;-73
2022/01/15 12:00:24;;;;;;;2.02;0.60;;;;;;;3.08;61.17;99672.28;1790989;80;20998;-75
2022/01/15 12:03:08;;;;;;;4.05;1.02;;;;;;;3.11;60.21;99685.95;1791469;80;20958;-75
2022/01/15 12:05:40;;;;;;;0.75;0.47;;;;;;;3.08;59.97;99679.59;1791182;80;21130;-71
2022/01/15 12:08:12;;;;;;;2.37;0.85;;;;;;;3.04;59.34;99684.98;1791370;80;20915;-72
2022/01/15 12:10:45;;;;;;;1.75;0.50;;;;;;;2.98;59.52;99686.53;1789219;79;20994;-73
2022/01/15 12:13:18;;;;;;;0.72;0.40;;;;;;;2.92;59.43;99691.54;1791668;80;20957;-72
2022/01/15 12:15:47;;;;;;;1.35;0.65;;;;;;;2.87;59.85;99689.16;1790988;80;20898;-72
2022/01/15 12:18:20;;;;;;;0.62;0.50;;;;;;;2.84;60.19;99681.96;1791100;79;21163;-72